Time;durP1;ratioP1;P1;durP2;ratioP2;P2;SDS_P1;SDS_P2;PMS_P1;PMS_P2;Temp;Humidity;BMP_temperature;BMP_pressure;BME280_temperature;BME280_humidity;BME280_pressure;Samples;Min_cycle;Max_cycle;Signal;HPM_P1;HPM_P2
2022/11/28 00:02:12;;;;;;;14.57;9.83;;;3.80;84.10;;;;;;5002505;28;20207;-66
2022/11/28 00:04:38;;;;;;;17.77;10.13;;;3.80;84.10;;;;;;4996797;28;20200;-66
2022/11/28 00:07:04;;;;;;;14.43;9.73;;;3.80;84.00;;;;;;5016009;28;20191;-66
2022/11/28 00:09:29;;;;;;;17.00;9.87;;;3.70;84.00;;;;;;5025211;28;20221;-66
2022/11/28 00:11:55;;;;;;;14.83;10.00;;;3.60;84.00;;;;;;4999607;28;20187;-65
2022/11/28 00:14:21;;;;;;;13.10;9.50;;;3.60;84.00;;;;;;4984234;28;20195;-66
2022/11/28 00:16:47;;;;;;;15.03;10.67;;;3.50;84.00;;;;;;4998842;28;20206;-66
2022/11/28 00:19:13;;;;;;;13.17;9.53;;;3.40;84.10;;;;;;5007208;28;20199;-66
2022/11/28 00:21:40;;;;;;;15.60;10.53;;;3.30;84.10;;;;;;4992973;28;20802;-66
2022/11/28 00:24:06;;;;;;;15.93;10.27;;;3.30;84.20;;;;;;5001895;28;20262;-66
2022/11/28 00:26:38;;;;;;;18.27;10.50;;;3.20;84.30;;;;;;5017814;28;20465;-66
2022/11/28 00:29:05;;;;;;;12.70;9.60;;;3.10;84.50;;;;;;5005946;28;20430;-66
2022/11/28 00:31:34;;;;;;;14.17;9.73;;;3.10;84.80;;;;;;5013148;28;20440;-66
2022/11/28 00:34:03;;;;;;;15.47;9.90;;;3.00;84.70;;;;;;5015065;28;20437;-65
2022/11/28 00:36:29;;;;;;;14.10;9.53;;;2.90;84.70;;;;;;5015509;28;20587;-66
2022/11/28 00:38:55;;;;;;;13.27;8.93;;;2.90;84.70;;;;;;5028009;28;20489;-66
2022/11/28 00:41:23;;;;;;;14.33;9.40;;;2.80;84.70;;;;;;4999510;28;20445;-66
2022/11/28 00:43:50;;;;;;;16.20;10.07;;;2.80;84.70;;;;;;5002645;28;20184;-66
2022/11/28 00:46:17;;;;;;;12.07;9.60;;;2.70;84.80;;;;;;5003355;28;20943;-65
2022/11/28 00:48:43;;;;;;;13.67;9.57;;;2.70;84.80;;;;;;5015601;28;20464;-66
2022/11/28 00:51:17;;;;;;;12.50;8.77;;;2.60;84.90;;;;;;5032907;28;20421;-66
2022/11/28 00:53:46;;;;;;;19.80;10.23;;;2.60;84.90;;;;;;5006873;28;20956;-66
2022/11/28 00:56:15;;;;;;;17.23;10.83;;;2.50;85.00;;;;;;5015293;28;20504;-66
2022/11/28 00:58:41;;;;;;;14.80;10.20;;;2.50;85.10;;;;;;5015569;28;20827;-66
2022/11/28 01:01:17;;;;;;;13.23;9.47;;;2.40;85.20;;;;;;4999305;28;20439;-65
2022/11/28 01:03:43;;;;;;;15.47;10.50;;;2.40;85.20;;;;;;5015865;28;20437;-66
2022/11/28 01:06:10;;;;;;;17.13;10.80;;;2.30;85.20;;;;;;5001739;28;20435;-66
2022/11/28 01:08:36;;;;;;;13.03;10.30;;;2.30;85.30;;;;;;5010373;28;20472;-66
2022/11/28 01:11:03;;;;;;;15.10;10.63;;;2.20;85.40;;;;;;5005937;28;20441;-65
2022/11/28 01:13:29;;;;;;;16.03;10.17;;;2.20;85.30;;;;;;5015257;28;20488;-65
2022/11/28 01:15:54;;;;;;;15.37;9.87;;;2.10;85.40;;;;;;5009922;28;20469;-66
2022/11/28 01:18:20;;;;;;;14.13;9.73;;;2.10;85.40;;;;;;5032779;28;20433;-66
2022/11/28 01:20:46;;;;;;;14.10;10.27;;;2.10;85.40;;;;;;4997022;28;20187;-66
2022/11/28 01:23:11;;;;;;;13.33;9.07;;;2.00;85.40;;;;;;4985945;28;20187;-65
2022/11/28 01:25:37;;;;;;;13.00;9.23;;;2.00;85.40;;;;;;5011226;28;20196;-66
2022/11/28 01:28:03;;;;;;;13.43;9.20;;;1.90;85.30;;;;;;5018506;28;20198;-66
2022/11/28 01:30:29;;;;;;;14.40;10.87;;;1.90;85.30;;;;;;5018730;28;20198;-65
2022/11/28 01:32:54;;;;;;;14.10;9.33;;;1.80;85.30;;;;;;4993447;28;20218;-66
2022/11/28 01:35:20;;;;;;;17.37;10.10;;;1.80;85.30;;;;;;5018884;28;20285;-65
2022/11/28 01:37:45;;;;;;;15.70;9.57;;;1.70;85.40;;;;;;4999435;28;20326;-66
2022/11/28 01:40:12;;;;;;;16.33;10.97;;;1.70;85.40;;;;;;4996806;28;20282;-66
2022/11/28 01:42:38;;;;;;;14.60;9.47;;;1.60;85.50;;;;;;5002253;28;20188;-65
2022/11/28 01:45:06;;;;;;;13.00;9.90;;;1.60;85.60;;;;;;4986068;28;20441;-66
2022/11/28 01:47:32;;;;;;;13.93;9.43;;;1.60;85.70;;;;;;5014575;28;20183;-66
2022/11/28 01:49:59;;;;;;;15.77;10.17;;;1.50;85.70;;;;;;5018392;28;20471;-66
2022/11/28 01:52:25;;;;;;;14.07;9.30;;;1.50;85.80;;;;;;5001928;28;20444;-66
2022/11/28 01:54:56;;;;;;;12.03;9.47;;;1.40;85.80;;;;;;4986466;28;20447;-66
2022/11/28 01:57:24;;;;;;;15.33;10.10;;;1.40;85.80;;;;;;5013340;28;20501;-66
2022/11/28 02:00:06;;;;;;;13.07;9.57;;;1.40;85.90;;;;;;5025396;28;20442;-66
2022/11/28 02:02:39;;;;;;;13.20;10.13;;;1.40;85.90;;;;;;5031738;28;20433;-66
2022/11/28 02:05:06;;;;;;;12.13;9.13;;;1.30;86.00;;;;;;5036292;28;20492;-66
2022/11/28 02:07:33;;;;;;;16.10;10.33;;;1.30;86.00;;;;;;5019522;28;20520;-65
2022/11/28 02:10:00;;;;;;;14.17;9.80;;;1.30;86.10;;;;;;5016777;28;20495;-66
2022/11/28 02:12:37;;;;;;;12.37;8.50;;;1.30;86.10;;;;;;5017929;28;20434;-66
2022/11/28 02:15:12;;;;;;;15.73;9.40;;;1.30;86.20;;;;;;5039013;28;20425;-66
2022/11/28 02:17:59;;;;;;;12.57;8.47;;;1.30;86.20;;;;;;5014461;28;20468;-66
2022/11/28 02:20:50;;;;;;;12.73;9.03;;;1.20;86.20;;;;;;5004994;28;20449;-65
2022/11/28 02:23:39;;;;;;;15.13;9.60;;;1.20;86.20;;;;;;5000422;28;20780;-66
2022/11/28 02:26:32;;;;;;;13.57;9.40;;;1.10;86.20;;;;;;5017356;28;20546;-66
2022/11/28 02:29:07;;;;;;;11.80;8.50;;;1.10;86.20;;;;;;5015523;28;20439;-66
2022/11/28 02:31:59;;;;;;;14.17;8.53;;;1.10;86.20;;;;;;5016997;28;20429;-66
2022/11/28 02:34:45;;;;;;;18.63;9.30;;;1.00;86.20;;;;;;5015725;28;20430;-66
2022/11/28 02:37:23;;;;;;;10.70;8.43;;;1.00;86.30;;;;;;5015525;28;20523;-66
2022/11/28 02:40:09;;;;;;;12.90;9.03;;;0.90;86.30;;;;;;5013721;28;20482;-66
2022/11/28 02:43:04;;;;;;;14.67;9.07;;;0.90;86.30;;;;;;4994935;28;20438;-65
2022/11/28 02:46:01;;;;;;;12.87;8.63;;;0.90;86.30;;;;;;4985724;28;20429;-66
2022/11/28 02:48:42;;;;;;;12.00;8.97;;;0.80;86.30;;;;;;5020046;28;20466;-65
2022/11/28 02:51:17;;;;;;;11.20;9.10;;;0.80;86.40;;;;;;5017596;28;20423;-66
2022/11/28 02:53:44;;;;;;;13.43;9.23;;;0.80;86.40;;;;;;5017715;28;20457;-65
2022/11/28 02:56:11;;;;;;;13.33;8.87;;;0.80;86.50;;;;;;5016362;28;20457;-65
2022/11/28 02:58:37;;;;;;;14.37;8.70;;;0.80;86.60;;;;;;4999970;28;20521;-65
2022/11/28 03:01:05;;;;;;;15.13;9.00;;;0.80;86.80;;;;;;5017688;28;20525;-66
2022/11/28 03:03:48;;;;;;;12.90;9.80;;;0.90;86.90;;;;;;5017483;28;20179;-66
2022/11/28 03:06:36;;;;;;;14.90;9.20;;;0.90;86.90;;;;;;5028238;28;20425;-66
2022/11/28 03:09:19;;;;;;;16.73;9.63;;;0.90;86.90;;;;;;5027612;28;20434;-66
2022/11/28 03:12:10;;;;;;;16.17;10.83;;;1.00;87.00;;;;;;5004811;28;20434;-66
2022/11/28 03:14:53;;;;;;;16.00;11.10;;;1.00;87.00;;;;;;5034983;28;20429;-66
2022/11/28 03:17:41;;;;;;;13.77;9.60;;;1.10;87.10;;;;;;5006794;28;20454;-66
2022/11/28 03:20:12;;;;;;;15.70;10.00;;;1.10;87.20;;;;;;5040526;28;20440;-66
2022/11/28 03:23:20;;;;;;;17.37;11.47;;;1.10;87.20;;;;;;5008743;28;20438;-66
2022/11/28 03:26:15;;;;;;;18.30;10.67;;;1.20;87.30;;;;;;5019893;28;20499;-65
2022/11/28 03:28:50;;;;;;;17.87;11.97;;;1.30;87.40;;;;;;5023539;28;20434;-65
2022/11/28 03:31:23;;;;;;;21.80;11.70;;;1.30;87.50;;;;;;5011524;28;20428;-66
2022/11/28 03:33:58;;;;;;;21.43;12.23;;;1.30;87.60;;;;;;5016557;28;20429;-65
2022/11/28 03:36:31;;;;;;;15.80;11.83;;;1.30;87.60;;;;;;5016702;28;20467;-66
2022/11/28 03:39:10;;;;;;;23.30;12.80;;;1.30;87.70;;;;;;5033891;28;20961;-66
2022/11/28 03:41:41;;;;;;;22.97;11.90;;;1.30;88.00;;;;;;5034268;28;20414;-66
2022/11/28 03:44:12;;;;;;;19.40;12.13;;;1.30;88.10;;;;;;5025522;28;20434;-66
2022/11/28 03:46:44;;;;;;;18.53;11.87;;;1.30;88.10;;;;;;5011444;28;20423;-66
2022/11/28 03:49:14;;;;;;;22.27;12.50;;;1.30;88.10;;;;;;5010036;28;20516;-66
2022/11/28 03:51:50;;;;;;;17.30;11.43;;;1.40;88.20;;;;;;5000359;28;20437;-66
2022/11/28 03:54:27;;;;;;;18.80;11.67;;;1.40;88.20;;;;;;5015159;28;20421;-65
2022/11/28 03:57:17;;;;;;;15.73;10.67;;;1.40;88.30;;;;;;5005498;28;20462;-66
2022/11/28 03:59:50;;;;;;;19.20;12.37;;;1.40;88.30;;;;;;5009531;28;20988;-65
2022/11/28 04:02:27;;;;;;;40.97;12.57;;;1.50;88.30;;;;;;5015167;28;20414;-65
2022/11/28 04:05:06;;;;;;;26.43;10.77;;;1.50;88.40;;;;;;5014487;28;20537;-66
2022/11/28 04:07:44;;;;;;;34.20;12.27;;;1.50;88.40;;;;;;5007003;28;20426;-67
2022/11/28 04:10:24;;;;;;;20.67;11.60;;;1.50;88.40;;;;;;5014600;28;20433;-67
2022/11/28 04:12:53;;;;;;;18.60;10.93;;;1.40;88.50;;;;;;5009393;28;20464;-66
2022/11/28 04:15:44;;;;;;;19.80;12.30;;;1.50;88.60;;;;;;5008880;28;20429;-66
2022/11/28 04:18:27;;;;;;;25.60;12.50;;;1.40;88.70;;;;;;5012971;28;20449;-66
2022/11/28 04:21:19;;;;;;;16.87;10.63;;;1.50;88.80;;;;;;5013771;28;20530;-66
2022/11/28 04:23:47;;;;;;;28.13;11.33;;;1.50;88.80;;;;;;5006433;28;20925;-66
2022/11/28 04:26:34;;;;;;;15.07;10.97;;;1.50;88.80;;;;;;4999410;28;20438;-67
2022/11/28 04:29:05;;;;;;;19.07;11.67;;;1.50;88.80;;;;;;5015449;28;20429;-67
2022/11/28 04:31:32;;;;;;;21.03;10.67;;;1.50;88.80;;;;;;5013018;28;21274;-66
2022/11/28 04:34:03;;;;;;;16.80;12.00;;;1.50;88.80;;;;;;5032153;28;20510;-66
2022/11/28 04:36:30;;;;;;;23.03;11.53;;;1.50;88.90;;;;;;5014438;28;20519;-66
2022/11/28 04:38:58;;;;;;;16.97;11.17;;;1.50;88.90;;;;;;5012640;28;20473;-67
2022/11/28 04:41:44;;;;;;;26.07;12.60;;;1.50;89.00;;;;;;5014339;28;20437;-66
2022/11/28 04:44:32;;;;;;;16.23;11.23;;;1.50;89.00;;;;;;5002588;28;20418;-66
2022/11/28 04:46:58;;;;;;;19.33;12.23;;;1.50;88.90;;;;;;5013603;28;20452;-66
2022/11/28 04:49:25;;;;;;;16.13;10.70;;;1.50;88.90;;;;;;4998850;28;20437;-67
2022/11/28 04:52:02;;;;;;;23.93;12.00;;;1.50;88.80;;;;;;5002389;28;20438;-66
2022/11/28 04:54:34;;;;;;;20.70;12.73;;;1.40;88.70;;;;;;5013589;28;20515;-67
2022/11/28 04:57:29;;;;;;;18.77;11.60;;;1.40;88.90;;;;;;5013669;28;20508;-66
2022/11/28 05:03:30;;;;;;;42.97;12.50;;;1.40;88.90;;;;;;4985833;28;20419;-67
2022/11/28 05:06:48;;;;;;;18.30;11.93;;;1.40;88.80;;;;;;5013000;28;20443;-67
2022/11/28 05:09:15;;;;;;;19.10;10.83;;;1.40;89.00;;;;;;5001596;28;20578;-67
2022/11/28 05:11:40;;;;;;;15.43;10.27;;;1.40;89.10;;;;;;5004323;28;20471;-67
2022/11/28 05:14:06;;;;;;;18.37;11.03;;;1.40;89.00;;;;;;5036666;28;20482;-67
2022/11/28 05:16:32;;;;;;;19.90;11.37;;;1.40;89.00;;;;;;4975131;28;20472;-67
2022/11/28 05:18:58;;;;;;;15.30;11.27;;;1.40;88.90;;;;;;4990610;28;20647;-67
2022/11/28 05:21:23;;;;;;;19.27;11.50;;;1.40;88.90;;;;;;4997496;28;20546;-68
2022/11/28 05:23:49;;;;;;;18.20;11.20;;;1.40;88.90;;;;;;5005027;28;20192;-65
2022/11/28 05:26:19;;;;;;;18.13;10.50;;;1.40;88.90;;;;;;5017160;28;20279;-65
2022/11/28 05:28:48;;;;;;;15.90;11.23;;;1.40;89.00;;;;;;5018536;28;20237;-66
2022/11/28 05:31:16;;;;;;;16.93;10.33;;;1.50;89.00;;;;;;5004714;28;20431;-66
2022/11/28 05:33:42;;;;;;;20.20;11.00;;;1.50;89.00;;;;;;4995220;28;20449;-65
2022/11/28 05:36:13;;;;;;;15.90;10.20;;;1.60;88.90;;;;;;4985415;28;20475;-65
2022/11/28 05:38:38;;;;;;;13.57;10.07;;;1.60;88.70;;;;;;5017462;28;20214;-65
2022/11/28 05:41:04;;;;;;;17.80;10.17;;;1.60;88.50;;;;;;5007305;28;20473;-65
2022/11/28 05:43:30;;;;;;;19.90;9.97;;;1.60;88.50;;;;;;5020095;28;20194;-65
2022/11/28 05:45:56;;;;;;;14.07;10.00;;;1.50;88.40;;;;;;5013369;28;20187;-65
2022/11/28 05:48:22;;;;;;;13.70;10.13;;;1.60;88.40;;;;;;5001095;28;20187;-66
2022/11/28 05:50:53;;;;;;;15.87;9.77;;;1.60;88.20;;;;;;5003711;28;20191;-65
2022/11/28 05:53:19;;;;;;;13.97;9.30;;;1.40;87.80;;;;;;5000233;28;20432;-65
2022/11/28 05:55:45;;;;;;;11.43;8.83;;;1.40;87.90;;;;;;5017285;28;20479;-65
2022/11/28 05:58:11;;;;;;;14.10;9.00;;;1.40;87.90;;;;;;5009135;28;20417;-64
2022/11/28 06:00:38;;;;;;;11.83;8.77;;;1.40;87.90;;;;;;5032853;28;20423;-65
2022/11/28 06:03:04;;;;;;;12.77;9.10;;;1.40;87.80;;;;;;5015462;28;20363;-65
2022/11/28 06:05:30;;;;;;;16.60;9.40;;;1.40;87.80;;;;;;5023368;28;20428;-65
2022/11/28 06:07:56;;;;;;;12.07;9.07;;;1.40;87.60;;;;;;5034712;28;20472;-66
2022/11/28 06:10:22;;;;;;;12.67;9.10;;;1.40;87.60;;;;;;5000387;28;20528;-64
2022/11/28 06:12:48;;;;;;;14.37;9.17;;;1.40;87.50;;;;;;5007150;28;20269;-65
2022/11/28 06:15:14;;;;;;;13.67;8.27;;;1.40;87.40;;;;;;5018102;28;20198;-65
2022/11/28 06:17:39;;;;;;;20.67;8.87;;;1.30;87.10;;;;;;5007018;28;20945;-64
2022/11/28 06:20:06;;;;;;;11.50;8.83;;;1.30;87.40;;;;;;5001815;28;20187;-63
2022/11/28 06:22:32;;;;;;;13.53;9.70;;;1.20;87.40;;;;;;5034876;28;20186;-64
2022/11/28 06:24:58;;;;;;;12.60;9.17;;;1.10;87.40;;;;;;5006987;28;20439;-65
2022/11/28 06:27:23;;;;;;;10.33;7.43;;;1.10;87.40;;;;;;5008302;28;20901;-64
2022/11/28 06:29:49;;;;;;;13.17;9.43;;;1.10;87.50;;;;;;5000932;28;20183;-65
2022/11/28 06:32:16;;;;;;;12.57;9.33;;;1.10;87.30;;;;;;5007157;28;20206;-65
2022/11/28 06:34:41;;;;;;;13.97;9.20;;;1.20;87.30;;;;;;5002945;28;20262;-64
2022/11/28 06:37:07;;;;;;;12.90;8.23;;;1.30;87.20;;;;;;5032200;28;20461;-64
2022/11/28 06:39:33;;;;;;;21.47;8.37;;;1.30;87.10;;;;;;5000566;28;20239;-64
2022/11/28 06:41:58;;;;;;;13.60;8.53;;;1.20;87.00;;;;;;5002733;28;20185;-66
2022/11/28 06:44:24;;;;;;;13.87;8.90;;;1.20;86.90;;;;;;5017910;28;20198;-66
2022/11/28 06:46:50;;;;;;;12.23;8.03;;;1.20;87.00;;;;;;5001576;28;20191;-67
2022/11/28 06:49:16;;;;;;;16.57;10.27;;;1.20;87.00;;;;;;5000454;28;20192;-66
2022/11/28 06:51:42;;;;;;;15.40;9.23;;;1.20;87.10;;;;;;5004814;28;20219;-65
2022/11/28 06:54:08;;;;;;;26.83;9.83;;;1.20;87.20;;;;;;5016765;28;20212;-64
2022/11/28 06:56:34;;;;;;;13.97;9.30;;;1.20;87.30;;;;;;5011653;28;20515;-64
2022/11/28 06:59:00;;;;;;;13.90;9.77;;;1.30;87.30;;;;;;5008597;28;20438;-64
2022/11/28 07:01:31;;;;;;;13.97;9.20;;;1.30;87.20;;;;;;5026054;28;20186;-65
2022/11/28 07:03:56;;;;;;;15.07;10.67;;;1.30;87.20;;;;;;5033277;28;20414;-64
2022/11/28 07:06:25;;;;;;;15.47;10.20;;;1.30;87.20;;;;;;5005980;28;20434;-64
2022/11/28 07:08:52;;;;;;;16.10;10.60;;;1.30;87.20;;;;;;5014799;28;20225;-65
2022/11/28 07:11:29;;;;;;;14.53;9.73;;;1.30;87.20;;;;;;5023429;28;20430;-65
2022/11/28 07:13:56;;;;;;;13.67;10.43;;;1.30;87.10;;;;;;5017599;28;20429;-66
2022/11/28 07:16:28;;;;;;;13.40;8.87;;;1.30;87.00;;;;;;5014247;28;20468;-65
2022/11/28 07:18:55;;;;;;;13.43;9.27;;;1.30;87.00;;;;;;5031420;28;20472;-65
2022/11/28 07:21:21;;;;;;;12.73;9.40;;;1.30;86.80;;;;;;4985029;28;20490;-65
2022/11/28 07:23:47;;;;;;;13.33;8.77;;;1.30;86.80;;;;;;4999397;28;20476;-65
2022/11/28 07:26:16;;;;;;;12.43;9.13;;;1.40;86.70;;;;;;4998364;28;20454;-66
2022/11/28 07:28:42;;;;;;;14.47;9.50;;;1.40;86.60;;;;;;5031908;28;20489;-65
2022/11/28 07:31:11;;;;;;;14.73;10.00;;;1.40;86.60;;;;;;5012247;28;20433;-65
2022/11/28 07:33:39;;;;;;;13.03;10.10;;;1.40;86.50;;;;;;5007835;28;20414;-65
2022/11/28 07:36:09;;;;;;;15.33;10.10;;;1.40;86.50;;;;;;5012618;28;20461;-65
2022/11/28 07:38:35;;;;;;;13.20;9.00;;;1.40;86.60;;;;;;5014933;28;20514;-65
2022/11/28 07:41:04;;;;;;;18.97;9.57;;;1.40;86.50;;;;;;4997522;28;20541;-65
2022/11/28 07:43:30;;;;;;;14.10;10.57;;;1.50;86.50;;;;;;5015245;28;20187;-65
2022/11/28 07:45:55;;;;;;;17.83;10.73;;;1.50;86.50;;;;;;5011481;28;20435;-66
2022/11/28 07:48:21;;;;;;;16.50;10.57;;;1.50;86.60;;;;;;5009316;28;20234;-67
2022/11/28 07:50:47;;;;;;;17.17;11.70;;;1.60;86.70;;;;;;5016904;28;20586;-66
2022/11/28 07:53:13;;;;;;;20.83;12.80;;;1.60;86.50;;;;;;5004790;28;20196;-66
2022/11/28 07:55:39;;;;;;;17.60;11.37;;;1.60;86.70;;;;;;4998819;28;20215;-66
2022/11/28 07:58:04;;;;;;;20.30;10.83;;;1.70;86.80;;;;;;5028414;28;20199;-66
2022/11/28 08:00:31;;;;;;;20.67;12.07;;;1.60;86.80;;;;;;5007138;28;20290;-65
2022/11/28 08:02:57;;;;;;;19.53;12.40;;;1.60;86.70;;;;;;4997933;28;20197;-65
2022/11/28 08:05:22;;;;;;;25.13;12.43;;;1.40;87.30;;;;;;5014139;28;20465;-66
2022/11/28 08:07:50;;;;;;;23.87;12.47;;;1.30;87.70;;;;;;4997638;28;20192;-65
2022/11/28 08:10:16;;;;;;;18.83;11.73;;;1.40;87.80;;;;;;5013285;28;20186;-65
2022/11/28 08:12:43;;;;;;;21.87;12.27;;;1.40;87.90;;;;;;5005924;28;20437;-65
2022/11/28 08:15:09;;;;;;;16.67;11.03;;;1.60;87.80;;;;;;5013936;28;21001;-65
2022/11/28 08:17:34;;;;;;;20.67;11.53;;;1.60;87.70;;;;;;4994336;28;20582;-65
2022/11/28 08:20:00;;;;;;;19.53;11.87;;;1.80;87.60;;;;;;4996742;28;20542;-66
2022/11/28 08:22:27;;;;;;;20.07;12.43;;;1.80;87.50;;;;;;5014538;28;20253;-65
2022/11/28 08:24:52;;;;;;;20.77;12.43;;;1.90;87.50;;;;;;4994573;28;20190;-64
2022/11/28 08:27:18;;;;;;;21.60;13.37;;;2.00;87.50;;;;;;4996618;28;20420;-64
2022/11/28 08:29:44;;;;;;;26.43;14.73;;;2.00;87.40;;;;;;5013923;28;20260;-65
2022/11/28 08:32:10;;;;;;;23.47;13.90;;;2.00;87.30;;;;;;4995398;28;20207;-65
2022/11/28 08:34:35;;;;;;;20.87;12.60;;;2.10;87.40;;;;;;4999331;28;20198;-65
2022/11/28 08:37:01;;;;;;;29.13;13.57;;;2.20;87.30;;;;;;5007883;28;20275;-64
2022/11/28 08:39:27;;;;;;;29.93;14.07;;;2.20;86.70;;;;;;5009909;28;20253;-64
2022/11/28 08:41:58;;;;;;;22.83;14.17;;;2.20;86.20;;;;;;5004545;28;20327;-64
2022/11/28 08:44:25;;;;;;;28.33;13.43;;;2.20;86.40;;;;;;5030414;28;20218;-64
2022/11/28 08:46:51;;;;;;;24.10;13.30;;;2.30;86.30;;;;;;5015419;28;20524;-64
2022/11/28 08:49:17;;;;;;;20.83;12.63;;;2.20;86.20;;;;;;5017955;28;20451;-64
2022/11/28 08:51:43;;;;;;;24.63;13.53;;;2.20;86.70;;;;;;4997340;28;20445;-64
2022/11/28 08:54:09;;;;;;;22.03;13.17;;;2.10;86.80;;;;;;5018566;28;20194;-64
2022/11/28 08:56:35;;;;;;;20.33;12.97;;;2.20;87.10;;;;;;5002588;28;20237;-64
2022/11/28 08:59:01;;;;;;;18.33;10.87;;;2.30;86.90;;;;;;5002658;28;20215;-64
2022/11/28 09:01:27;;;;;;;21.77;13.33;;;2.40;86.60;;;;;;5003455;28;20272;-64
2022/11/28 09:03:54;;;;;;;20.30;12.30;;;2.50;86.30;;;;;;5005662;28;20187;-64
2022/11/28 09:06:21;;;;;;;20.80;13.30;;;2.60;86.10;;;;;;5014396;28;20440;-64
2022/11/28 09:08:48;;;;;;;26.90;13.30;;;2.60;85.80;;;;;;5017356;28;20449;-64
2022/11/28 09:11:16;;;;;;;21.73;14.77;;;2.30;86.00;;;;;;5033026;28;20480;-65
2022/11/28 09:13:43;;;;;;;21.80;14.40;;;2.30;86.70;;;;;;4999998;28;20434;-65
2022/11/28 09:16:08;;;;;;;22.57;14.43;;;2.20;86.70;;;;;;5034130;28;20469;-65
2022/11/28 09:18:34;;;;;;;19.70;13.33;;;2.30;87.10;;;;;;5016770;28;20430;-65
2022/11/28 09:21:08;;;;;;;21.47;13.70;;;2.30;87.20;;;;;;4999878;28;20191;-66
2022/11/28 09:23:37;;;;;;;22.63;13.27;;;2.40;86.80;;;;;;5015858;28;20187;-66
2022/11/28 09:26:17;;;;;;;17.17;12.00;;;2.40;86.70;;;;;;5001259;28;20430;-65
2022/11/28 09:28:44;;;;;;;16.00;11.77;;;2.50;86.60;;;;;;5017270;28;20437;-65
2022/11/28 09:31:11;;;;;;;24.57;13.30;;;2.70;86.50;;;;;;5001709;28;20440;-65
2022/11/28 09:33:37;;;;;;;16.70;12.80;;;2.60;86.40;;;;;;5016423;28;20429;-65
2022/11/28 09:36:22;;;;;;;18.33;12.57;;;2.70;86.60;;;;;;5017067;28;20478;-64
2022/11/28 09:38:48;;;;;;;20.23;13.17;;;2.70;86.40;;;;;;5033778;28;20944;-64
2022/11/28 09:41:26;;;;;;;18.40;11.87;;;2.80;86.10;;;;;;5015888;28;20513;-64
2022/11/28 09:43:55;;;;;;;20.17;13.07;;;2.80;85.70;;;;;;5013895;28;20434;-63
2022/11/28 09:46:27;;;;;;;19.63;13.27;;;2.90;85.50;;;;;;5016471;28;20793;-63
2022/11/28 09:48:56;;;;;;;17.20;12.27;;;3.10;85.30;;;;;;5025080;28;20424;-65
2022/11/28 09:51:33;;;;;;;17.67;11.83;;;3.10;84.90;;;;;;5016067;28;20462;-65
2022/11/28 09:54:18;;;;;;;18.17;12.40;;;3.20;84.70;;;;;;5016856;28;20461;-64
2022/11/28 09:56:48;;;;;;;16.97;12.13;;;3.30;84.00;;;;;;5005724;28;21102;-63
2022/11/28 09:59:26;;;;;;;17.07;11.70;;;3.30;84.10;;;;;;5025418;28;20436;-64
2022/11/28 10:01:59;;;;;;;17.70;12.53;;;3.40;83.80;;;;;;5015985;28;20414;-64
2022/11/28 10:04:40;;;;;;;19.60;13.53;;;3.40;83.80;;;;;;5004616;28;20441;-64
2022/11/28 10:07:19;;;;;;;22.00;13.20;;;3.50;83.60;;;;;;5016900;28;20449;-64
2022/11/28 10:10:13;;;;;;;19.40;12.30;;;3.60;83.20;;;;;;5005803;28;20453;-64
2022/11/28 10:12:57;;;;;;;20.90;13.57;;;3.60;82.90;;;;;;5001435;28;20454;-64
2022/11/28 10:15:28;;;;;;;21.27;12.90;;;3.60;82.80;;;;;;5011685;28;20479;-64
2022/11/28 10:17:57;;;;;;;17.47;12.67;;;3.60;82.80;;;;;;5029119;28;20418;-65
2022/11/28 10:20:31;;;;;;;24.83;15.40;;;3.60;82.80;;;;;;5015993;28;20421;-64
2022/11/28 10:23:01;;;;;;;18.67;13.77;;;3.60;82.70;;;;;;5015114;28;20448;-64
2022/11/28 10:25:39;;;;;;;22.60;14.27;;;3.50;82.50;;;;;;5009191;28;20422;-64
2022/11/28 10:28:10;;;;;;;21.60;14.63;;;3.50;83.10;;;;;;5016130;28;20422;-68
2022/11/28 10:30:41;;;;;;;28.23;15.77;;;3.60;82.90;;;;;;5034063;28;20437;-68
2022/11/28 10:33:48;;;;;;;26.03;15.47;;;3.60;83.00;;;;;;5016100;28;20418;-63
2022/11/28 10:36:22;;;;;;;24.83;14.73;;;3.70;83.00;;;;;;4991127;28;20500;-65
2022/11/28 10:38:48;;;;;;;30.40;16.13;;;3.70;82.50;;;;;;5015623;28;21375;-67
2022/11/28 10:41:29;;;;;;;24.70;16.93;;;3.80;83.00;;;;;;4997904;28;20495;-66
2022/11/28 10:44:08;;;;;;;27.90;15.90;;;3.80;82.40;;;;;;5015541;28;20810;-66
2022/11/28 10:46:56;;;;;;;26.50;16.47;;;3.80;81.90;;;;;;5007924;28;20499;-66
2022/11/28 10:49:37;;;;;;;23.93;16.47;;;3.90;82.10;;;;;;5012787;28;20924;-66
2022/11/28 10:52:19;;;;;;;29.50;17.73;;;4.00;81.80;;;;;;5015945;28;20519;-67
2022/11/28 10:54:59;;;;;;;22.47;14.67;;;4.00;80.70;;;;;;5015274;28;21001;-66
2022/11/28 10:58:03;;;;;;;24.63;13.03;;;4.20;80.80;;;;;;5013572;28;20469;-68
2022/11/28 11:00:29;;;;;;;20.27;13.17;;;4.30;80.50;;;;;;5022175;28;20530;-68
2022/11/28 11:02:56;;;;;;;19.67;12.70;;;4.40;79.10;;;;;;5015514;28;20930;-68
2022/11/28 11:05:28;;;;;;;17.17;11.73;;;4.50;79.20;;;;;;5018387;28;20432;-67
2022/11/28 11:08:02;;;;;;;20.40;11.83;;;4.60;78.40;;;;;;5021794;28;20564;-65
2022/11/28 11:10:35;;;;;;;19.37;9.60;;;4.60;78.60;;;;;;5013326;28;20488;-65
2022/11/28 11:13:13;;;;;;;17.13;11.23;;;4.80;78.20;;;;;;5013672;28;20436;-66
2022/11/28 11:15:39;;;;;;;17.37;12.67;;;4.80;77.50;;;;;;5014284;28;20433;-67
2022/11/28 11:18:28;;;;;;;17.90;12.70;;;4.80;77.30;;;;;;5017132;28;20437;-68
2022/11/28 11:21:17;;;;;;;15.00;10.03;;;4.80;77.20;;;;;;5013242;28;20437;-68
2022/11/28 11:23:44;;;;;;;18.33;11.60;;;4.80;76.20;;;;;;5006733;28;20508;-68
2022/11/28 11:26:23;;;;;;;13.23;10.10;;;4.90;76.10;;;;;;4998150;28;20544;-68
2022/11/28 11:28:56;;;;;;;16.53;10.83;;;4.80;76.40;;;;;;5015124;28;20475;-68
2022/11/28 11:31:29;;;;;;;15.43;10.03;;;4.90;76.10;;;;;;5014970;28;20472;-67
2022/11/28 11:34:11;;;;;;;15.03;9.37;;;5.00;76.30;;;;;;5033381;28;20434;-68
2022/11/28 11:36:37;;;;;;;14.40;9.17;;;5.10;75.30;;;;;;5013158;28;20481;-68
2022/11/28 11:39:09;;;;;;;16.53;10.47;;;5.00;75.10;;;;;;5015533;28;20478;-68
2022/11/28 11:41:35;;;;;;;13.23;10.13;;;5.10;75.40;;;;;;5005529;28;20226;-66
2022/11/28 11:44:13;;;;;;;17.00;10.17;;;5.10;75.80;;;;;;5015474;28;20417;-68
2022/11/28 11:46:53;;;;;;;19.63;12.43;;;5.20;74.50;;;;;;5016333;28;20425;-67
2022/11/28 11:49:47;;;;;;;17.87;11.30;;;5.30;74.40;;;;;;5031294;28;20511;-66
2022/11/28 11:52:14;;;;;;;13.77;9.60;;;5.20;72.90;;;;;;5007856;28;20502;-67
2022/11/28 11:55:03;;;;;;;14.87;8.50;;;5.20;73.30;;;;;;5013427;28;20432;-67
2022/11/28 11:57:32;;;;;;;10.77;7.67;;;5.30;72.20;;;;;;5007929;28;20453;-67
2022/11/28 12:00:03;;;;;;;17.23;9.17;;;5.50;73.30;;;;;;5015427;28;20539;-67
2022/11/28 12:02:50;;;;;;;12.57;9.37;;;5.40;72.60;;;;;;5015925;28;20422;-69
2022/11/28 12:05:19;;;;;;;11.57;9.17;;;5.40;72.20;;;;;;5018748;28;20428;-67
2022/11/28 12:07:59;;;;;;;12.77;8.70;;;5.30;72.40;;;;;;5040780;28;20418;-65
2022/11/28 12:10:28;;;;;;;12.80;8.97;;;5.40;72.40;;;;;;5002156;28;20430;-65
2022/11/28 12:12:54;;;;;;;15.10;8.57;;;5.50;72.60;;;;;;5011766;28;20433;-66
2022/11/28 12:15:26;;;;;;;15.70;8.13;;;5.50;71.90;;;;;;4994289;28;20426;-65
2022/11/28 12:18:04;;;;;;;12.00;7.67;;;5.50;71.70;;;;;;5013845;28;20569;-66
2022/11/28 12:21:08;;;;;;;11.53;8.40;;;5.50;71.80;;;;;;5012792;28;20474;-66
2022/11/28 12:24:07;;;;;;;19.60;14.33;;;5.70;71.70;;;;;;5013635;28;20428;-66
2022/11/28 12:26:49;;;;;;;13.13;10.27;;;5.70;71.20;;;;;;4996631;28;20497;-65
2022/11/28 12:29:15;;;;;;;14.00;10.97;;;5.70;71.80;;;;;;5029309;28;20438;-65
2022/11/28 12:32:22;;;;;;;18.23;11.83;;;5.60;72.30;;;;;;5013506;28;20449;-65
2022/11/28 12:35:06;;;;;;;20.67;15.57;;;5.80;72.50;;;;;;4985833;28;20199;-67
2022/11/28 12:37:39;;;;;;;19.93;13.40;;;5.80;73.10;;;;;;5013972;28;20457;-67
2022/11/28 12:40:26;;;;;;;17.37;13.97;;;6.00;72.50;;;;;;5013223;28;20484;-67
2022/11/28 12:43:15;;;;;;;16.93;11.43;;;5.80;72.80;;;;;;5007541;28;20421;-67
2022/11/28 12:45:57;;;;;;;17.07;11.53;;;5.80;73.40;;;;;;5008637;28;20430;-66
2022/11/28 12:48:36;;;;;;;19.00;16.97;;;5.80;73.30;;;;;;5012948;28;20433;-66
2022/11/28 12:51:17;;;;;;;26.67;23.07;;;5.70;74.50;;;;;;5015932;28;20431;-65
2022/11/28 12:53:54;;;;;;;15.37;13.00;;;5.70;74.80;;;;;;5030094;28;20433;-67
2022/11/28 12:57:04;;;;;;;15.33;13.73;;;5.60;75.10;;;;;;5014396;28;20552;-66
2022/11/28 12:59:48;;;;;;;16.23;12.37;;;5.60;75.40;;;;;;4915820;29;20438;-67
2022/11/28 13:02:23;;;;;;;38.10;34.93;;;5.60;74.60;;;;;;4917426;29;20423;-66
2022/11/28 13:05:20;;;;;;;20.10;12.20;;;5.30;75.80;;;;;;4983505;28;20449;-67
2022/11/28 13:08:07;;;;;;;21.50;12.57;;;5.30;76.10;;;;;;5023324;28;20422;-67
2022/11/28 13:10:48;;;;;;;18.60;13.43;;;5.30;75.70;;;;;;5001520;28;20438;-67
2022/11/28 13:13:29;;;;;;;16.00;10.53;;;5.30;75.80;;;;;;5025485;28;20826;-67